createdAt,value
2023-04-23T00:00:37.351Z,87.55
2023-04-23T00:03:43.200Z,87.12
2023-04-23T00:06:48.185Z,88.11
2023-04-23T00:09:56.290Z,87.08
2023-04-23T00:12:59.354Z,87.19
2023-04-23T00:16:01.713Z,86.80
2023-04-23T00:19:03.905Z,87.67
2023-04-23T00:22:06.414Z,87.55
2023-04-23T00:25:09.648Z,86.61
2023-04-23T00:28:11.690Z,87.20
2023-04-23T00:31:13.828Z,86.34
2023-04-23T00:34:16.148Z,86.94
2023-04-23T00:37:18.404Z,87.13
2023-04-23T00:40:21.020Z,85.98
2023-04-23T00:43:24.292Z,85.97
2023-04-23T00:46:27.037Z,86.18
2023-04-23T00:49:30.042Z,85.79
2023-04-23T00:52:32.327Z,85.84
2023-04-23T00:55:34.727Z,85.49
2023-04-23T00:58:38.025Z,83.32
2023-04-23T01:01:41.328Z,84.23
2023-04-23T01:04:51.278Z,83.88
2023-04-23T01:07:54.395Z,85.16
2023-04-23T01:10:56.465Z,83.97
2023-04-23T01:13:59.508Z,82.55
2023-04-23T01:17:03.264Z,82.71
2023-04-23T01:20:06.819Z,83.62
2023-04-23T01:23:08.886Z,83.88
2023-04-23T01:26:11.955Z,83.00
2023-04-23T01:29:14.455Z,81.71
2023-04-23T01:32:17.620Z,82.24
2023-04-23T01:35:19.799Z,81.46
2023-04-23T01:38:22.854Z,81.93
2023-04-23T01:41:25.772Z,82.67
2023-04-23T01:44:27.954Z,81.79
2023-04-23T01:47:30.191Z,83.02
2023-04-23T01:50:32.370Z,83.71
2023-04-23T01:53:34.419Z,83.17
2023-04-23T01:56:36.608Z,83.79
2023-04-23T01:59:40.505Z,83.72
2023-04-23T02:02:44.554Z,83.75
2023-04-23T02:05:46.883Z,84.10
2023-04-23T02:08:49.953Z,84.24
2023-04-23T02:11:51.978Z,84.21
2023-04-23T02:14:54.646Z,84.31
2023-04-23T02:17:56.956Z,84.35
2023-04-23T02:21:00.031Z,84.18
2023-04-23T02:24:02.486Z,83.29
2023-04-23T02:27:05.874Z,82.81
2023-04-23T02:30:09.706Z,83.92
2023-04-23T02:33:12.664Z,85.11
2023-04-23T02:36:14.862Z,84.23
2023-04-23T02:39:17.134Z,84.57
2023-04-23T02:42:19.212Z,85.90
2023-04-23T02:45:21.490Z,85.52
2023-04-23T02:48:27.497Z,84.98
2023-04-23T02:51:29.861Z,93.31
2023-04-23T02:54:32.658Z,93.72
2023-04-23T02:57:34.904Z,92.71
2023-04-23T03:00:37.087Z,93.25
2023-04-23T03:03:39.974Z,93.81
2023-04-23T03:06:42.799Z,93.58
2023-04-23T03:09:44.873Z,92.41
2023-04-23T03:12:47.144Z,93.57
2023-04-23T03:15:51.350Z,96.72
2023-04-23T03:18:53.452Z,97.53
2023-04-23T03:21:55.925Z,98.73
2023-04-23T03:24:58.308Z,100.00
2023-04-23T03:28:01.084Z,100.00
2023-04-23T03:31:04.041Z,100.00
2023-04-23T03:34:06.271Z,100.00
2023-04-23T03:37:10.981Z,100.00
2023-04-23T03:40:14.413Z,100.00
2023-04-23T03:43:18.566Z,100.00
2023-04-23T03:46:40.148Z,100.00
2023-04-23T03:49:45.432Z,100.00
2023-04-23T03:52:48.815Z,100.00
2023-04-23T03:56:05.924Z,100.00
2023-04-23T03:59:14.210Z,100.00
2023-04-23T04:02:16.692Z,100.00
2023-04-23T04:05:19.019Z,100.00
2023-04-23T04:08:26.281Z,100.00
2023-04-23T04:11:28.450Z,100.00
2023-04-23T04:14:35.547Z,99.05
2023-04-23T04:17:38.267Z,98.72
2023-04-23T04:20:45.853Z,98.07
2023-04-23T04:23:48.297Z,97.70
2023-04-23T04:26:52.754Z,97.34
2023-04-23T04:29:54.954Z,97.11
2023-04-23T04:32:57.512Z,97.41
2023-04-23T04:36:00.705Z,96.46
2023-04-23T04:39:03.700Z,96.14
2023-04-23T04:42:07.453Z,96.57
2023-04-23T04:45:10.746Z,96.38
2023-04-23T04:48:14.880Z,95.25
2023-04-23T04:51:17.460Z,94.73
2023-04-23T04:54:19.631Z,94.85
2023-04-23T04:57:23.346Z,93.79
2023-04-23T05:00:30.366Z,94.37
2023-04-23T05:03:33.049Z,93.85
2023-04-23T05:06:35.443Z,95.12
2023-04-23T05:09:37.620Z,96.12
2023-04-23T05:12:41.621Z,95.27
2023-04-23T05:15:43.747Z,95.79
2023-04-23T05:18:46.843Z,95.60
2023-04-23T05:21:49.021Z,94.61
2023-04-23T05:24:51.082Z,95.31
2023-04-23T05:27:53.791Z,94.21
2023-04-23T05:30:57.675Z,94.48
2023-04-23T05:33:59.741Z,93.80
2023-04-23T05:37:02.544Z,93.48
2023-04-23T05:40:07.026Z,93.03
2023-04-23T05:43:09.514Z,93.76
2023-04-23T05:46:11.796Z,92.69
2023-04-23T05:49:13.909Z,93.33
2023-04-23T05:52:16.478Z,93.08
2023-04-23T05:55:20.510Z,92.35
2023-04-23T05:58:23.762Z,91.83
2023-04-23T06:01:26.128Z,92.29
2023-04-23T06:04:28.637Z,91.45
2023-04-23T06:07:32.771Z,91.03
2023-04-23T06:10:34.917Z,90.29
2023-04-23T06:13:44.059Z,89.46
2023-04-23T06:16:46.667Z,89.22
2023-04-23T06:19:48.710Z,88.09
2023-04-23T06:22:50.902Z,88.87
2023-04-23T06:25:53.062Z,87.91
2023-04-23T06:28:55.190Z,87.76
2023-04-23T06:32:13.852Z,86.75
2023-04-23T06:35:15.981Z,86.79
2023-04-23T06:38:18.990Z,86.86
2023-04-23T06:41:21.356Z,86.84
2023-04-23T06:44:34.700Z,85.94
2023-04-23T06:47:38.378Z,86.41
2023-04-23T06:50:40.702Z,85.86
2023-04-23T06:53:42.870Z,84.95
2023-04-23T06:56:44.991Z,85.53
2023-04-23T06:59:47.750Z,85.29
2023-04-23T07:02:51.064Z,84.97
2023-04-23T07:05:54.403Z,84.03
2023-04-23T07:08:56.475Z,83.99
2023-04-23T07:11:58.584Z,83.76
2023-04-23T07:15:00.962Z,83.90
2023-04-23T07:18:03.937Z,83.54
2023-04-23T07:21:06.548Z,84.17
2023-04-23T07:24:08.630Z,83.72
2023-04-23T07:27:10.885Z,82.95
2023-04-23T07:30:13.536Z,82.39
2023-04-23T07:33:15.711Z,83.62
2023-04-23T07:36:18.051Z,81.00
2023-04-23T07:39:20.212Z,83.08
2023-04-23T07:42:22.274Z,83.05
2023-04-23T07:45:24.425Z,81.48
2023-04-23T07:48:26.663Z,78.62
2023-04-23T07:51:28.930Z,76.99
2023-04-23T07:54:30.973Z,76.16
2023-04-23T07:57:33.122Z,75.10
2023-04-23T08:00:37.577Z,73.28
2023-04-23T08:03:39.937Z,72.18
2023-04-23T08:06:42.701Z,72.95
2023-04-23T08:09:46.817Z,71.93
2023-04-23T08:12:49.202Z,71.45
2023-04-23T08:15:52.723Z,71.69
2023-04-23T08:19:05.011Z,71.42
2023-04-23T08:22:11.035Z,70.85
2023-04-23T08:25:14.482Z,69.92
2023-04-23T08:28:16.639Z,73.61
2023-04-23T08:31:26.517Z,77.25
2023-04-23T08:34:29.230Z,79.41
2023-04-23T08:37:32.927Z,81.58
2023-04-23T08:40:38.001Z,82.96
2023-04-23T08:44:04.790Z,83.59
2023-04-23T08:47:11.120Z,85.87
2023-04-23T08:50:18.367Z,87.18
2023-04-23T08:53:25.880Z,86.92
2023-04-23T08:56:28.214Z,89.26
2023-04-23T08:59:34.563Z,88.97
2023-04-23T09:02:38.488Z,88.86
2023-04-23T09:05:42.948Z,89.45
2023-04-23T09:08:45.857Z,90.82
2023-04-23T09:11:47.955Z,88.16
2023-04-23T09:14:51.138Z,86.03
2023-04-23T09:17:53.670Z,85.95
2023-04-23T09:20:55.895Z,85.50
2023-04-23T09:23:58.015Z,83.74
2023-04-23T09:27:01.339Z,83.16
2023-04-23T09:30:12.064Z,82.36
2023-04-23T09:33:16.646Z,80.16
2023-04-23T09:36:22.709Z,75.71
2023-04-23T09:39:25.045Z,74.90
2023-04-23T09:42:28.782Z,76.11
2023-04-23T09:45:32.905Z,75.85
2023-04-23T09:48:43.134Z,75.46
2023-04-23T09:51:49.490Z,75.45
2023-04-23T09:54:51.694Z,76.56
2023-04-23T09:57:55.112Z,76.33
2023-04-23T10:01:07.944Z,77.42
2023-04-23T10:04:13.553Z,77.61
2023-04-23T10:07:20.043Z,78.76
2023-04-23T10:10:22.642Z,77.84
2023-04-23T10:13:25.921Z,79.05
2023-04-23T10:16:35.513Z,78.49
2023-04-23T10:19:45.250Z,77.83
2023-04-23T10:22:47.942Z,77.84
2023-04-23T10:25:53.279Z,76.99
2023-04-23T10:28:56.813Z,77.51
2023-04-23T10:32:04.279Z,75.96
2023-04-23T10:35:08.081Z,75.73
2023-04-23T10:38:10.548Z,75.46
2023-04-23T10:41:19.652Z,75.68
2023-04-23T10:44:45.063Z,74.70
2023-04-23T10:47:46.386Z,73.87
2023-04-23T10:51:09.850Z,74.25
2023-04-23T10:54:20.115Z,73.80
2023-04-23T10:57:22.310Z,73.56
2023-04-23T11:00:24.769Z,73.39
2023-04-23T11:03:31.802Z,74.27
2023-04-23T11:07:07.777Z,73.43
2023-04-23T11:10:14.450Z,73.97
2023-04-23T11:13:22.818Z,74.30
2023-04-23T11:16:30.415Z,73.35
2023-04-23T11:19:38.420Z,72.86
2023-04-23T11:22:46.562Z,74.02
2023-04-23T11:25:48.766Z,73.48
2023-04-23T11:28:54.784Z,73.88
2023-04-23T11:32:02.577Z,73.29
2023-04-23T11:35:07.824Z,72.34
2023-04-23T11:38:10.638Z,72.26
2023-04-23T11:41:12.772Z,72.47
2023-04-23T11:44:14.921Z,72.30
2023-04-23T11:47:21.461Z,72.69
2023-04-23T11:50:27.555Z,72.21
2023-04-23T11:53:29.689Z,71.79
2023-04-23T11:56:35.785Z,72.68
2023-04-23T11:59:38.117Z,72.14
2023-04-23T12:02:56.597Z,72.19
2023-04-23T12:05:59.399Z,72.94
2023-04-23T12:09:01.472Z,72.62
2023-04-23T12:12:06.017Z,71.96
2023-04-23T12:15:09.074Z,71.76
2023-04-23T12:18:12.909Z,72.49
2023-04-23T12:21:15.565Z,71.97
2023-04-23T12:24:18.037Z,72.04
2023-04-23T12:27:23.996Z,71.87
2023-04-23T12:30:30.500Z,71.49
2023-04-23T12:33:32.556Z,71.48
2023-04-23T12:36:36.896Z,72.28
2023-04-23T12:39:38.948Z,72.39
2023-04-23T12:42:42.390Z,71.87
2023-04-23T12:45:47.682Z,72.32
2023-04-23T12:48:49.824Z,71.92
2023-04-23T12:51:52.872Z,71.82
2023-04-23T12:54:56.892Z,71.76
2023-04-23T12:58:02.784Z,71.80
2023-04-23T13:01:04.970Z,71.08
2023-04-23T13:04:07.099Z,72.42
2023-04-23T13:07:11.796Z,71.23
2023-04-23T13:10:13.916Z,72.27
2023-04-23T13:13:16.053Z,72.48
2023-04-23T13:16:21.290Z,72.00
2023-04-23T13:19:23.437Z,73.37
2023-04-23T13:22:29.072Z,73.33
2023-04-23T13:25:31.274Z,72.72
2023-04-23T13:28:33.337Z,73.27
2023-04-23T13:31:38.399Z,72.31
2023-04-23T13:34:40.714Z,73.33
2023-04-23T13:37:48.749Z,73.67
2023-04-23T13:40:50.935Z,73.25
2023-04-23T13:43:52.963Z,73.01
2023-04-23T13:46:59.216Z,72.52
2023-04-23T13:50:09.857Z,72.71
2023-04-23T13:53:15.177Z,72.58
2023-04-23T13:56:18.272Z,72.67
2023-04-23T13:59:22.555Z,73.87
2023-04-23T14:02:24.715Z,73.14
2023-04-23T14:05:26.863Z,73.56
2023-04-23T14:08:30.757Z,74.13
2023-04-23T14:11:32.936Z,77.92
2023-04-23T14:14:35.212Z,80.31
2023-04-23T14:17:39.372Z,80.18
2023-04-23T14:20:42.303Z,79.60
2023-04-23T14:23:55.501Z,78.75
2023-04-23T14:26:58.110Z,79.65
2023-04-23T14:30:05.604Z,79.60
2023-04-23T14:33:07.852Z,78.22
2023-04-23T14:36:13.234Z,79.94
2023-04-23T14:39:17.204Z,79.66
2023-04-23T14:42:19.599Z,79.07
2023-04-23T14:45:21.722Z,77.42
2023-04-23T14:48:23.788Z,77.66
2023-04-23T14:51:27.529Z,80.77
2023-04-23T14:54:29.645Z,84.98
2023-04-23T14:57:31.807Z,87.48
2023-04-23T15:00:34.094Z,88.76
2023-04-23T15:03:37.067Z,85.59
2023-04-23T15:06:40.855Z,86.35
2023-04-23T15:09:43.512Z,85.38
2023-04-23T15:12:56.042Z,85.05
2023-04-23T15:16:03.456Z,85.22
2023-04-23T15:19:12.432Z,86.62
2023-04-23T15:22:14.983Z,86.35
2023-04-23T15:25:18.948Z,86.59
2023-04-23T15:28:21.658Z,86.63
2023-04-23T15:31:27.743Z,87.50
2023-04-23T15:34:36.705Z,86.47
2023-04-23T15:37:40.488Z,87.17
2023-04-23T15:40:42.764Z,86.25
2023-04-23T15:43:44.857Z,85.07
2023-04-23T15:46:47.009Z,85.54
2023-04-23T15:49:49.852Z,84.85
2023-04-23T15:52:52.050Z,84.90
2023-04-23T15:55:54.505Z,84.53
2023-04-23T15:58:57.297Z,83.77
2023-04-23T16:02:06.970Z,84.25
2023-04-23T16:05:09.881Z,84.62
2023-04-23T16:08:12.639Z,83.73
2023-04-23T16:11:15.019Z,84.27
2023-04-23T16:14:21.915Z,83.95
2023-04-23T16:17:24.887Z,84.79
2023-04-23T16:20:28.668Z,85.87
2023-04-23T16:23:31.162Z,84.69
2023-04-23T16:26:33.901Z,85.01
2023-04-23T16:29:36.077Z,85.44
2023-04-23T16:32:39.424Z,84.92
2023-04-23T16:35:41.884Z,85.37
2023-04-23T16:38:49.608Z,85.57
2023-04-23T16:41:51.741Z,85.25
2023-04-23T16:44:56.778Z,84.67
2023-04-23T16:49:07.457Z,85.20
2023-04-23T16:51:56.105Z,85.72
2023-04-23T16:55:43.556Z,83.71
2023-04-23T16:58:45.880Z,84.05
2023-04-23T17:01:56.585Z,83.10
2023-04-23T17:04:59.286Z,83.61
2023-04-23T17:08:01.930Z,82.84
2023-04-23T17:11:07.477Z,82.82
2023-04-23T17:14:09.692Z,81.33
2023-04-23T17:17:11.755Z,80.96
2023-04-23T17:20:15.909Z,80.80
2023-04-23T17:23:21.506Z,80.31
2023-04-23T17:26:24.586Z,80.86
2023-04-23T17:29:26.852Z,80.35
2023-04-23T17:32:31.510Z,80.00
2023-04-23T17:35:33.638Z,79.75
2023-04-23T17:38:35.907Z,80.41
2023-04-23T17:41:38.728Z,79.98
2023-04-23T17:44:42.626Z,80.68
2023-04-23T17:47:55.215Z,79.80
2023-04-23T17:50:57.765Z,80.39
2023-04-23T17:54:02.216Z,81.04
2023-04-23T17:57:04.997Z,81.81
2023-04-23T18:00:10.009Z,81.32
2023-04-23T18:03:18.818Z,81.30
2023-04-23T18:06:22.287Z,79.60
2023-04-23T18:09:24.414Z,80.45
2023-04-23T18:12:30.885Z,80.41
2023-04-23T18:15:33.045Z,80.11
2023-04-23T18:18:35.260Z,79.80
2023-04-23T18:21:38.962Z,80.37
2023-04-23T18:24:41.445Z,79.58
2023-04-23T18:27:44.987Z,79.87
2023-04-23T18:30:47.341Z,79.79
2023-04-23T18:34:00.184Z,79.67
2023-04-23T18:37:09.854Z,79.50
2023-04-23T18:40:12.695Z,80.97
2023-04-23T18:43:25.153Z,81.17
2023-04-23T18:46:28.924Z,81.38
2023-04-23T18:49:46.740Z,81.14
2023-04-23T18:53:00.385Z,81.19
2023-04-23T18:56:10.697Z,81.54
2023-04-23T18:59:20.469Z,81.23
2023-04-23T19:02:34.366Z,81.30
2023-04-23T19:05:38.640Z,81.53
2023-04-23T19:08:42.865Z,82.04
2023-04-23T19:11:45.599Z,81.96
2023-04-23T19:14:48.399Z,81.77
2023-04-23T19:17:50.657Z,81.37
2023-04-23T19:20:52.959Z,82.04
2023-04-23T19:23:56.874Z,83.02
2023-04-23T19:27:01.059Z,83.52
2023-04-23T19:30:10.263Z,82.91
2023-04-23T19:33:15.365Z,82.59
2023-04-23T19:36:19.704Z,82.99
2023-04-23T19:39:23.728Z,83.13
2023-04-23T19:42:25.961Z,83.44
2023-04-23T19:45:30.180Z,83.96
2023-04-23T19:48:32.897Z,83.82
2023-04-23T19:51:39.037Z,84.17
2023-04-23T19:54:49.108Z,84.13
2023-04-23T19:57:51.281Z,83.94
2023-04-23T20:00:54.499Z,84.37
2023-04-23T20:03:56.870Z,84.68
2023-04-23T20:06:59.025Z,83.59
2023-04-23T20:10:01.419Z,83.90
2023-04-23T20:13:03.724Z,84.18
2023-04-23T20:16:08.390Z,83.72
2023-04-23T20:19:13.799Z,84.22
2023-04-23T20:22:18.172Z,84.32
2023-04-23T20:25:25.750Z,83.35
2023-04-23T20:28:28.320Z,82.71
2023-04-23T20:31:31.743Z,81.94
2023-04-23T20:34:34.250Z,82.15
2023-04-23T20:37:37.047Z,82.43
2023-04-23T20:40:39.983Z,82.44
2023-04-23T20:43:43.672Z,82.43
2023-04-23T20:46:46.582Z,82.23
2023-04-23T20:49:49.937Z,81.69
2023-04-23T20:52:52.215Z,82.05
2023-04-23T20:55:57.930Z,80.89
2023-04-23T20:59:00.150Z,80.92
2023-04-23T21:02:03.734Z,80.73
2023-04-23T21:05:08.135Z,80.89
2023-04-23T21:08:11.415Z,80.55
2023-04-23T21:11:18.540Z,80.22
2023-04-23T21:14:21.289Z,79.80
2023-04-23T21:17:26.607Z,80.38
2023-04-23T21:20:29.119Z,80.32
2023-04-23T21:23:32.602Z,79.98
2023-04-23T21:26:34.866Z,79.84
2023-04-23T21:29:37.329Z,80.09
2023-04-23T21:32:39.549Z,79.67
2023-04-23T21:35:42.735Z,80.75
2023-04-23T21:38:45.409Z,79.68
2023-04-23T21:41:47.908Z,79.19
2023-04-23T21:44:53.397Z,80.08
2023-04-23T21:47:58.154Z,79.21
2023-04-23T21:51:00.560Z,79.60
2023-04-23T21:54:04.318Z,79.24
2023-04-23T21:57:06.907Z,78.74
2023-04-23T22:00:14.105Z,79.11
2023-04-23T22:03:27.937Z,79.47
2023-04-23T22:06:42.029Z,80.15
2023-04-23T22:09:44.677Z,79.95
2023-04-23T22:12:49.914Z,79.91
2023-04-23T22:15:52.438Z,79.98
2023-04-23T22:18:55.907Z,80.26
2023-04-23T22:21:58.058Z,80.37
2023-04-23T22:25:01.383Z,81.13
2023-04-23T22:28:03.883Z,80.86
2023-04-23T22:31:05.998Z,80.11
2023-04-23T22:34:08.141Z,80.38
2023-04-23T22:37:10.319Z,80.57
2023-04-23T22:40:12.922Z,80.41
2023-04-23T22:43:15.983Z,80.95
2023-04-23T22:46:18.182Z,80.53
2023-04-23T22:49:20.472Z,80.68
2023-04-23T22:52:22.767Z,81.12
2023-04-23T22:55:27.753Z,81.65
2023-04-23T22:58:30.163Z,81.25
2023-04-23T23:01:32.399Z,81.18
2023-04-23T23:04:38.044Z,82.07
2023-04-23T23:07:40.346Z,82.39
2023-04-23T23:10:43.088Z,82.05
2023-04-23T23:13:48.287Z,81.83
2023-04-23T23:16:50.404Z,82.34
2023-04-23T23:19:53.462Z,82.14
2023-04-23T23:22:55.711Z,81.99
2023-04-23T23:25:59.944Z,82.29
2023-04-23T23:29:02.404Z,81.92
2023-04-23T23:32:04.723Z,81.44
2023-04-23T23:35:08.345Z,81.40
2023-04-23T23:38:11.207Z,81.54
2023-04-23T23:41:13.414Z,82.18
2023-04-23T23:44:16.793Z,82.27
2023-04-23T23:47:19.020Z,82.42
2023-04-23T23:50:21.217Z,83.09
2023-04-23T23:53:23.227Z,81.83
2023-04-23T23:56:25.433Z,82.33
2023-04-23T23:59:27.695Z,82.23
